»·PEaware :: WAT169 KPSP-KOXR

WAT169 :: KPSP-KOXR

FLIGHT INFORMATION

Flight Status: Arrived
Operator:
Walker Air Transport
More flights by this operator :: More flights under this callsign
Pilot: Marty P. (27464)
Aircraft: BEECH AIRCRAFT SUPER KING AIR 350
(B350)
More flights by this aircraft type
Origin: KPSP Palm Springs Intl
United States
Destination: KOXR Oxnard
United States
More flights between these airports :: More routes between these airports
Route: +CATH1 PSP V388 DEWAY POM VNY V186 FIM
File this flight plan on PilotEdge
Remarks: PSPP15
Altitude:
(Current/Filed)
12,000ft
Speed:
(Current/Filed)
220kts
Departed: 26-Oct-20 05:13 PM
Arrived: 26-Oct-20 05:50 PM
Distance/Time
Traveled:
136nm/0:37
Distance/Time
To Go:
Arrived

Flight Plot

Page will automatically refresh every two minutes.

Flight plan parsing failed; only flown route is shown


Map Options




Map Legend


Flown Route
Filed Route
Departure Airport
Arrival Airport
Navaid (VOR, NDB)
Fix

Horizontal Profiles

Position Reports

Time Latitude Longitude Heading Altitude Ground
Speed
26-Oct-20 16:54 33.823197 -116.497449 56 398ft 0kts
26-Oct-20 16:55 33.823197 -116.497449 55 398ft 0kts
26-Oct-20 16:56 33.823197 -116.497449 56 398ft 0kts
26-Oct-20 16:57 33.823197 -116.497449 56 398ft 0kts
26-Oct-20 16:58 33.823197 -116.497449 56 398ft 0kts
26-Oct-20 16:59 33.823197 -116.497449 56 398ft 0kts
26-Oct-20 17:00 33.823197 -116.497449 56 398ft 0kts
26-Oct-20 17:01 33.823197 -116.497449 56 398ft 0kts
26-Oct-20 17:02 33.823197 -116.497449 56 398ft 0kts
26-Oct-20 17:03 33.823197 -116.497449 56 398ft 0kts
26-Oct-20 17:04 33.823197 -116.497449 56 398ft 0kts
26-Oct-20 17:05 33.823197 -116.497449 56 398ft 0kts
26-Oct-20 17:06 33.823197 -116.497449 56 398ft 0kts
26-Oct-20 17:07 33.823197 -116.497449 56 398ft 0kts
26-Oct-20 17:08 33.823006 -116.496928 143 396ft 12kts
26-Oct-20 17:09 33.819800 -116.496180 233 392ft 12kts
26-Oct-20 17:10 33.819187 -116.497153 232 394ft 0kts
26-Oct-20 17:11 33.819187 -116.497153 232 394ft 0kts
26-Oct-20 17:12 33.827846 -116.506334 327 500ft 131kts
26-Oct-20 17:13 33.852051 -116.534014 326 3274ft 111kts
26-Oct-20 17:14 33.876420 -116.559780 318 5886ft 141kts
26-Oct-20 17:15 33.908341 -116.591191 8 8046ft 154kts
26-Oct-20 17:16 33.913251 -116.543815 138 10285ft 222kts
26-Oct-20 17:17 33.865297 -116.572533 277 12037ft 216kts
26-Oct-20 17:18 33.894112 -116.639372 313 12004ft 249kts
26-Oct-20 17:19 33.933692 -116.711738 312 12032ft 264kts
26-Oct-20 17:20 33.955638 -116.800569 289 12032ft 290kts
26-Oct-20 17:21 33.969079 -116.897175 288 12031ft 294kts
26-Oct-20 17:22 33.981559 -116.995083 288 12022ft 295kts
26-Oct-20 17:23 33.993942 -117.093337 288 12016ft 297kts
26-Oct-20 17:24 34.006588 -117.192328 288 12012ft 299kts
26-Oct-20 17:25 34.018967 -117.291551 288 12008ft 300kts
26-Oct-20 17:26 34.031219 -117.391280 288 12015ft 301kts
26-Oct-20 17:27 34.043469 -117.491321 288 12011ft 301kts
26-Oct-20 17:28 34.055669 -117.591473 289 12011ft 301kts
26-Oct-20 17:29 34.067774 -117.691553 288 12007ft 301kts
26-Oct-20 17:30 34.080569 -117.791705 292 12007ft 299kts
26-Oct-20 17:31 34.100272 -117.888341 294 12014ft 296kts
26-Oct-20 17:32 34.120519 -117.985545 295 12029ft 294kts
26-Oct-20 17:33 34.139371 -118.077113 292 10875ft 280kts
26-Oct-20 17:34 34.148768 -118.171869 279 9396ft 281kts
26-Oct-20 17:35 34.155540 -118.264499 278 8017ft 270kts
26-Oct-20 17:36 34.162586 -118.355004 278 7034ft 271kts
26-Oct-20 17:37 34.169711 -118.445884 277 6048ft 272kts
26-Oct-20 17:38 34.176621 -118.535557 277 5065ft 260kts
26-Oct-20 17:39 34.182617 -118.619773 276 5012ft 248kts
26-Oct-20 17:40 34.188439 -118.702350 276 5012ft 243kts
26-Oct-20 17:41 34.194072 -118.783350 276 5016ft 241kts
26-Oct-20 17:42 34.197598 -118.864332 273 5008ft 234kts
26-Oct-20 17:43 34.198516 -118.937795 272 4323ft 205kts
26-Oct-20 17:44 34.199143 -119.003438 272 3265ft 187kts
26-Oct-20 17:45 34.199644 -119.060306 273 2325ft 143kts
26-Oct-20 17:46 34.199998 -119.103210 273 1689ft 127kts
26-Oct-20 17:47 34.200302 -119.141775 272 991ft 104kts
26-Oct-20 17:48 34.200584 -119.177092 274 444ft 106kts
26-Oct-20 17:49 34.200825 -119.208913 271 38ft 37kts
26-Oct-20 17:50 34.199941 -119.211738 157 34ft 1kts
26-Oct-20 17:51 34.199801 -119.207736 90 38ft 19kts
26-Oct-20 17:52 34.198984 -119.206540 90 38ft 0kts
26-Oct-20 17:53 34.198984 -119.206540 90 38ft 0kts
26-Oct-20 17:54 34.198984 -119.206540 90 38ft 0kts

Navigation Log

Ident Type
Flight plan parsing failed, navigation log unavailable